sensor_id;sensor_type;location;lat;lon;timestamp;temperature;humidity
32201;DHT22;18701;45.588;5.288;2023-06-26T00:00:03;23.70;99.90
32201;DHT22;18701;45.588;5.288;2023-06-26T00:02:30;23.60;99.90
32201;DHT22;18701;45.588;5.288;2023-06-26T00:04:58;23.60;99.90
32201;DHT22;18701;45.588;5.288;2023-06-26T00:07:24;23.70;99.90
32201;DHT22;18701;45.588;5.288;2023-06-26T00:09:49;23.50;99.90
32201;DHT22;18701;45.588;5.288;2023-06-26T00:12:15;23.60;99.90
32201;DHT22;18701;45.588;5.288;2023-06-26T00:14:40;23.70;99.90
32201;DHT22;18701;45.588;5.288;2023-06-26T00:17:06;23.80;99.90
32201;DHT22;18701;45.588;5.288;2023-06-26T00:19:32;23.70;99.90
32201;DHT22;18701;45.588;5.288;2023-06-26T00:21:58;23.70;99.90
32201;DHT22;18701;45.588;5.288;2023-06-26T00:24:24;23.60;99.90
32201;DHT22;18701;45.588;5.288;2023-06-26T00:26:49;23.70;99.90
32201;DHT22;18701;45.588;5.288;2023-06-26T00:29:15;23.60;99.90
32201;DHT22;18701;45.588;5.288;2023-06-26T00:31:41;23.70;99.90
32201;DHT22;18701;45.588;5.288;2023-06-26T00:34:07;23.60;99.90
32201;DHT22;18701;45.588;5.288;2023-06-26T00:36:32;23.50;99.90
32201;DHT22;18701;45.588;5.288;2023-06-26T00:38:59;23.60;99.90
32201;DHT22;18701;45.588;5.288;2023-06-26T00:41:24;23.60;99.90
32201;DHT22;18701;45.588;5.288;2023-06-26T00:43:50;23.40;99.90
32201;DHT22;18701;45.588;5.288;2023-06-26T00:46:16;23.30;99.90
32201;DHT22;18701;45.588;5.288;2023-06-26T00:48:44;23.40;99.90
32201;DHT22;18701;45.588;5.288;2023-06-26T00:51:10;23.30;99.90
32201;DHT22;18701;45.588;5.288;2023-06-26T00:53:36;23.30;99.90
32201;DHT22;18701;45.588;5.288;2023-06-26T00:56:02;23.30;99.90
32201;DHT22;18701;45.588;5.288;2023-06-26T00:58:28;23.20;99.90
32201;DHT22;18701;45.588;5.288;2023-06-26T01:00:54;23.20;99.90
32201;DHT22;18701;45.588;5.288;2023-06-26T01:03:23;23.00;99.90
32201;DHT22;18701;45.588;5.288;2023-06-26T01:05:52;22.90;99.90
32201;DHT22;18701;45.588;5.288;2023-06-26T01:08:18;23.10;99.90
32201;DHT22;18701;45.588;5.288;2023-06-26T01:10:45;23.20;99.90
32201;DHT22;18701;45.588;5.288;2023-06-26T01:13:13;23.10;99.90
32201;DHT22;18701;45.588;5.288;2023-06-26T01:15:39;23.10;99.90
32201;DHT22;18701;45.588;5.288;2023-06-26T01:18:05;23.20;99.90
32201;DHT22;18701;45.588;5.288;2023-06-26T01:20:32;23.10;99.90
32201;DHT22;18701;45.588;5.288;2023-06-26T01:23:07;23.10;99.90
32201;DHT22;18701;45.588;5.288;2023-06-26T01:28:06;23.00;99.90
32201;DHT22;18701;45.588;5.288;2023-06-26T01:30:33;23.00;99.90
32201;DHT22;18701;45.588;5.288;2023-06-26T01:33:00;22.90;99.90
32201;DHT22;18701;45.588;5.288;2023-06-26T01:35:26;22.90;99.90
32201;DHT22;18701;45.588;5.288;2023-06-26T01:37:52;22.80;99.90
32201;DHT22;18701;45.588;5.288;2023-06-26T01:40:18;22.70;99.90
32201;DHT22;18701;45.588;5.288;2023-06-26T01:42:44;22.60;99.90
32201;DHT22;18701;45.588;5.288;2023-06-26T01:45:14;22.60;99.90
32201;DHT22;18701;45.588;5.288;2023-06-26T01:47:44;22.50;99.90
32201;DHT22;18701;45.588;5.288;2023-06-26T01:50:18;22.60;99.90
32201;DHT22;18701;45.588;5.288;2023-06-26T01:52:58;22.50;99.90
32201;DHT22;18701;45.588;5.288;2023-06-26T01:55:32;22.50;99.90
32201;DHT22;18701;45.588;5.288;2023-06-26T01:58:02;22.70;99.90
32201;DHT22;18701;45.588;5.288;2023-06-26T02:00:27;22.60;99.90
32201;DHT22;18701;45.588;5.288;2023-06-26T02:02:54;22.50;99.90
32201;DHT22;18701;45.588;5.288;2023-06-26T02:05:19;22.50;99.90
32201;DHT22;18701;45.588;5.288;2023-06-26T02:07:45;22.60;99.90
32201;DHT22;18701;45.588;5.288;2023-06-26T02:10:11;22.60;99.90
32201;DHT22;18701;45.588;5.288;2023-06-26T02:12:37;22.60;99.90
32201;DHT22;18701;45.588;5.288;2023-06-26T02:15:03;22.50;99.90
32201;DHT22;18701;45.588;5.288;2023-06-26T02:17:30;22.50;99.90
32201;DHT22;18701;45.588;5.288;2023-06-26T02:19:55;22.40;99.90
32201;DHT22;18701;45.588;5.288;2023-06-26T02:22:21;22.30;99.90
32201;DHT22;18701;45.588;5.288;2023-06-26T02:24:47;22.30;99.90
32201;DHT22;18701;45.588;5.288;2023-06-26T02:27:12;22.40;99.90
32201;DHT22;18701;45.588;5.288;2023-06-26T02:29:39;22.40;99.90
32201;DHT22;18701;45.588;5.288;2023-06-26T02:32:05;22.50;99.90
32201;DHT22;18701;45.588;5.288;2023-06-26T02:34:30;22.40;99.90
32201;DHT22;18701;45.588;5.288;2023-06-26T02:36:56;22.40;99.90
32201;DHT22;18701;45.588;5.288;2023-06-26T02:39:22;22.50;99.90
32201;DHT22;18701;45.588;5.288;2023-06-26T02:41:48;22.40;99.90
32201;DHT22;18701;45.588;5.288;2023-06-26T02:44:13;22.40;99.90
32201;DHT22;18701;45.588;5.288;2023-06-26T02:46:39;22.30;99.90
32201;DHT22;18701;45.588;5.288;2023-06-26T02:49:06;22.20;99.90
32201;DHT22;18701;45.588;5.288;2023-06-26T02:51:32;22.20;99.90
32201;DHT22;18701;45.588;5.288;2023-06-26T02:53:58;22.20;99.90
32201;DHT22;18701;45.588;5.288;2023-06-26T02:56:23;22.20;99.90
32201;DHT22;18701;45.588;5.288;2023-06-26T02:58:49;22.10;99.90
32201;DHT22;18701;45.588;5.288;2023-06-26T03:01:15;22.20;99.90
32201;DHT22;18701;45.588;5.288;2023-06-26T03:03:41;22.10;99.90
32201;DHT22;18701;45.588;5.288;2023-06-26T03:06:07;22.00;99.90
32201;DHT22;18701;45.588;5.288;2023-06-26T03:08:35;22.00;99.90
32201;DHT22;18701;45.588;5.288;2023-06-26T03:11:01;22.00;99.90
32201;DHT22;18701;45.588;5.288;2023-06-26T03:13:27;22.10;99.90
32201;DHT22;18701;45.588;5.288;2023-06-26T03:15:52;21.90;99.90
32201;DHT22;18701;45.588;5.288;2023-06-26T03:18:18;22.00;99.90
32201;DHT22;18701;45.588;5.288;2023-06-26T03:20:44;22.00;99.90
32201;DHT22;18701;45.588;5.288;2023-06-26T03:23:09;21.90;99.90
32201;DHT22;18701;45.588;5.288;2023-06-26T03:25:35;21.80;99.90
32201;DHT22;18701;45.588;5.288;2023-06-26T03:28:00;21.90;99.90
32201;DHT22;18701;45.588;5.288;2023-06-26T03:30:26;21.70;99.90
32201;DHT22;18701;45.588;5.288;2023-06-26T03:32:51;21.90;99.90
32201;DHT22;18701;45.588;5.288;2023-06-26T03:35:17;21.90;99.90
32201;DHT22;18701;45.588;5.288;2023-06-26T03:37:43;21.90;99.90
32201;DHT22;18701;45.588;5.288;2023-06-26T03:40:09;21.80;99.90
32201;DHT22;18701;45.588;5.288;2023-06-26T03:42:35;21.90;99.90
32201;DHT22;18701;45.588;5.288;2023-06-26T03:45:00;21.90;99.90
32201;DHT22;18701;45.588;5.288;2023-06-26T03:47:26;21.90;99.90
32201;DHT22;18701;45.588;5.288;2023-06-26T03:49:51;21.70;99.90
32201;DHT22;18701;45.588;5.288;2023-06-26T03:52:17;21.80;99.90
32201;DHT22;18701;45.588;5.288;2023-06-26T03:54:42;21.80;99.90
32201;DHT22;18701;45.588;5.288;2023-06-26T03:57:08;21.60;99.90
32201;DHT22;18701;45.588;5.288;2023-06-26T03:59:35;21.70;99.90
32201;DHT22;18701;45.588;5.288;2023-06-26T04:02:01;21.70;99.90
32201;DHT22;18701;45.588;5.288;2023-06-26T04:04:27;21.70;99.90
32201;DHT22;18701;45.588;5.288;2023-06-26T04:06:53;21.60;99.90
32201;DHT22;18701;45.588;5.288;2023-06-26T04:09:18;21.70;99.90
32201;DHT22;18701;45.588;5.288;2023-06-26T04:11:44;21.70;99.90
32201;DHT22;18701;45.588;5.288;2023-06-26T04:14:10;21.70;99.90
32201;DHT22;18701;45.588;5.288;2023-06-26T04:16:36;21.70;99.90
32201;DHT22;18701;45.588;5.288;2023-06-26T04:19:01;21.70;99.90
32201;DHT22;18701;45.588;5.288;2023-06-26T04:21:28;21.70;99.90
32201;DHT22;18701;45.588;5.288;2023-06-26T04:23:53;21.70;99.90
32201;DHT22;18701;45.588;5.288;2023-06-26T04:26:19;21.60;99.90
32201;DHT22;18701;45.588;5.288;2023-06-26T04:28:45;21.70;99.90
32201;DHT22;18701;45.588;5.288;2023-06-26T04:31:10;21.60;99.90
32201;DHT22;18701;45.588;5.288;2023-06-26T04:33:37;21.60;99.90
32201;DHT22;18701;45.588;5.288;2023-06-26T04:36:06;21.60;99.90
32201;DHT22;18701;45.588;5.288;2023-06-26T04:38:32;21.80;99.90
32201;DHT22;18701;45.588;5.288;2023-06-26T04:40:57;21.70;99.90
32201;DHT22;18701;45.588;5.288;2023-06-26T04:43:23;21.60;99.90
32201;DHT22;18701;45.588;5.288;2023-06-26T04:45:49;21.60;99.90
32201;DHT22;18701;45.588;5.288;2023-06-26T04:48:14;21.50;99.90
32201;DHT22;18701;45.588;5.288;2023-06-26T04:50:40;21.50;99.90
32201;DHT22;18701;45.588;5.288;2023-06-26T04:53:06;21.60;99.90
32201;DHT22;18701;45.588;5.288;2023-06-26T04:55:31;21.70;99.90
32201;DHT22;18701;45.588;5.288;2023-06-26T04:57:57;21.80;99.90
32201;DHT22;18701;45.588;5.288;2023-06-26T05:00:22;21.80;99.90
32201;DHT22;18701;45.588;5.288;2023-06-26T05:02:51;21.80;99.90
32201;DHT22;18701;45.588;5.288;2023-06-26T05:05:27;21.60;99.90
32201;DHT22;18701;45.588;5.288;2023-06-26T05:07:56;21.70;99.90
32201;DHT22;18701;45.588;5.288;2023-06-26T05:10:22;21.80;99.90
32201;DHT22;18701;45.588;5.288;2023-06-26T05:12:47;21.90;99.90
32201;DHT22;18701;45.588;5.288;2023-06-26T05:15:13;21.90;99.90
32201;DHT22;18701;45.588;5.288;2023-06-26T05:17:39;22.10;99.90
32201;DHT22;18701;45.588;5.288;2023-06-26T05:20:05;22.00;99.90
32201;DHT22;18701;45.588;5.288;2023-06-26T05:22:32;21.90;99.90
32201;DHT22;18701;45.588;5.288;2023-06-26T05:24:59;22.00;99.90
32201;DHT22;18701;45.588;5.288;2023-06-26T05:27:26;22.10;99.90
32201;DHT22;18701;45.588;5.288;2023-06-26T05:29:52;22.00;99.90
32201;DHT22;18701;45.588;5.288;2023-06-26T05:32:18;22.10;99.90
32201;DHT22;18701;45.588;5.288;2023-06-26T05:34:47;22.20;99.90
32201;DHT22;18701;45.588;5.288;2023-06-26T05:37:21;22.10;99.90
32201;DHT22;18701;45.588;5.288;2023-06-26T05:39:47;22.20;99.90
32201;DHT22;18701;45.588;5.288;2023-06-26T05:42:13;22.10;99.90
32201;DHT22;18701;45.588;5.288;2023-06-26T05:44:39;22.20;99.90
32201;DHT22;18701;45.588;5.288;2023-06-26T05:47:05;22.30;99.90
32201;DHT22;18701;45.588;5.288;2023-06-26T05:49:30;22.50;99.90
32201;DHT22;18701;45.588;5.288;2023-06-26T05:51:56;22.50;99.90
32201;DHT22;18701;45.588;5.288;2023-06-26T05:54:23;22.60;99.90
32201;DHT22;18701;45.588;5.288;2023-06-26T05:56:56;22.70;99.90
32201;DHT22;18701;45.588;5.288;2023-06-26T05:59:22;22.80;99.90
32201;DHT22;18701;45.588;5.288;2023-06-26T06:01:48;22.80;99.90
32201;DHT22;18701;45.588;5.288;2023-06-26T06:04:13;22.80;99.90
32201;DHT22;18701;45.588;5.288;2023-06-26T06:06:39;22.70;99.90
32201;DHT22;18701;45.588;5.288;2023-06-26T06:09:05;22.70;99.90
32201;DHT22;18701;45.588;5.288;2023-06-26T06:11:30;22.90;99.90
32201;DHT22;18701;45.588;5.288;2023-06-26T06:13:56;23.00;99.90
32201;DHT22;18701;45.588;5.288;2023-06-26T06:16:21;23.00;99.90
32201;DHT22;18701;45.588;5.288;2023-06-26T06:18:47;23.20;99.90
32201;DHT22;18701;45.588;5.288;2023-06-26T06:21:12;23.30;99.90
32201;DHT22;18701;45.588;5.288;2023-06-26T06:23:38;23.40;99.90
32201;DHT22;18701;45.588;5.288;2023-06-26T06:26:04;23.40;99.90
32201;DHT22;18701;45.588;5.288;2023-06-26T06:28:29;23.40;99.90
32201;DHT22;18701;45.588;5.288;2023-06-26T06:30:55;23.50;99.90
32201;DHT22;18701;45.588;5.288;2023-06-26T06:33:20;23.70;99.90
32201;DHT22;18701;45.588;5.288;2023-06-26T06:35:46;23.70;99.90
32201;DHT22;18701;45.588;5.288;2023-06-26T06:38:12;23.80;99.90
32201;DHT22;18701;45.588;5.288;2023-06-26T06:40:37;23.80;99.90
32201;DHT22;18701;45.588;5.288;2023-06-26T06:43:03;23.90;99.90
32201;DHT22;18701;45.588;5.288;2023-06-26T06:45:29;23.90;99.90
32201;DHT22;18701;45.588;5.288;2023-06-26T06:47:54;24.10;99.90
32201;DHT22;18701;45.588;5.288;2023-06-26T06:50:20;24.10;99.90
32201;DHT22;18701;45.588;5.288;2023-06-26T06:52:46;24.20;99.90
32201;DHT22;18701;45.588;5.288;2023-06-26T06:55:11;24.10;99.90
32201;DHT22;18701;45.588;5.288;2023-06-26T06:57:38;24.20;99.90
32201;DHT22;18701;45.588;5.288;2023-06-26T07:00:10;24.20;99.90
32201;DHT22;18701;45.588;5.288;2023-06-26T07:02:37;24.30;99.90
32201;DHT22;18701;45.588;5.288;2023-06-26T07:05:03;24.30;99.90
32201;DHT22;18701;45.588;5.288;2023-06-26T07:07:31;24.40;99.90
32201;DHT22;18701;45.588;5.288;2023-06-26T07:09:58;24.50;99.90
32201;DHT22;18701;45.588;5.288;2023-06-26T07:12:24;24.70;99.90
32201;DHT22;18701;45.588;5.288;2023-06-26T07:14:49;24.70;99.90
32201;DHT22;18701;45.588;5.288;2023-06-26T07:17:15;24.70;99.90
32201;DHT22;18701;45.588;5.288;2023-06-26T07:19:41;24.70;99.90
32201;DHT22;18701;45.588;5.288;2023-06-26T07:22:06;24.70;99.90
32201;DHT22;18701;45.588;5.288;2023-06-26T07:24:32;24.70;99.90
32201;DHT22;18701;45.588;5.288;2023-06-26T07:26:58;24.90;99.90
32201;DHT22;18701;45.588;5.288;2023-06-26T07:29:23;24.90;99.90
32201;DHT22;18701;45.588;5.288;2023-06-26T07:31:49;24.90;99.90
32201;DHT22;18701;45.588;5.288;2023-06-26T07:34:14;24.90;99.90
32201;DHT22;18701;45.588;5.288;2023-06-26T07:36:40;25.10;99.90
32201;DHT22;18701;45.588;5.288;2023-06-26T07:39:05;25.10;99.90
32201;DHT22;18701;45.588;5.288;2023-06-26T07:41:31;25.10;99.90
32201;DHT22;18701;45.588;5.288;2023-06-26T07:43:57;25.20;99.90
32201;DHT22;18701;45.588;5.288;2023-06-26T07:46:23;25.30;99.90
32201;DHT22;18701;45.588;5.288;2023-06-26T07:48:49;25.30;99.90
32201;DHT22;18701;45.588;5.288;2023-06-26T07:51:15;25.40;99.90
32201;DHT22;18701;45.588;5.288;2023-06-26T07:53:41;25.30;99.90
32201;DHT22;18701;45.588;5.288;2023-06-26T07:56:06;25.30;99.90
32201;DHT22;18701;45.588;5.288;2023-06-26T07:58:32;25.50;99.90
32201;DHT22;18701;45.588;5.288;2023-06-26T08:00:57;25.60;99.90
32201;DHT22;18701;45.588;5.288;2023-06-26T08:03:23;25.70;99.90
32201;DHT22;18701;45.588;5.288;2023-06-26T08:05:49;25.60;99.90
32201;DHT22;18701;45.588;5.288;2023-06-26T08:08:15;25.70;99.90
32201;DHT22;18701;45.588;5.288;2023-06-26T08:10:40;25.80;99.90
32201;DHT22;18701;45.588;5.288;2023-06-26T08:13:06;25.90;99.90
32201;DHT22;18701;45.588;5.288;2023-06-26T08:15:31;25.90;99.90
32201;DHT22;18701;45.588;5.288;2023-06-26T08:17:57;25.90;99.90
32201;DHT22;18701;45.588;5.288;2023-06-26T08:20:23;26.00;99.90
32201;DHT22;18701;45.588;5.288;2023-06-26T08:22:48;25.90;99.90
32201;DHT22;18701;45.588;5.288;2023-06-26T08:25:16;26.10;99.90
32201;DHT22;18701;45.588;5.288;2023-06-26T08:27:42;26.20;99.90
32201;DHT22;18701;45.588;5.288;2023-06-26T08:30:08;26.20;99.90
32201;DHT22;18701;45.588;5.288;2023-06-26T08:32:34;26.20;99.90
32201;DHT22;18701;45.588;5.288;2023-06-26T08:35:00;26.40;99.90
32201;DHT22;18701;45.588;5.288;2023-06-26T08:37:25;26.20;99.90
32201;DHT22;18701;45.588;5.288;2023-06-26T08:39:51;26.10;99.90
32201;DHT22;18701;45.588;5.288;2023-06-26T08:42:16;26.00;99.90
32201;DHT22;18701;45.588;5.288;2023-06-26T08:44:42;26.30;99.90
32201;DHT22;18701;45.588;5.288;2023-06-26T08:47:10;26.50;99.90
32201;DHT22;18701;45.588;5.288;2023-06-26T08:50:13;26.50;99.90
32201;DHT22;18701;45.588;5.288;2023-06-26T08:53:03;26.50;99.90
32201;DHT22;18701;45.588;5.288;2023-06-26T08:55:27;26.60;99.90
32201;DHT22;18701;45.588;5.288;2023-06-26T08:57:54;26.80;99.90
32201;DHT22;18701;45.588;5.288;2023-06-26T09:00:20;26.70;99.90
32201;DHT22;18701;45.588;5.288;2023-06-26T09:02:46;26.80;99.90
32201;DHT22;18701;45.588;5.288;2023-06-26T09:05:12;26.90;99.90
32201;DHT22;18701;45.588;5.288;2023-06-26T09:07:37;27.10;99.90
32201;DHT22;18701;45.588;5.288;2023-06-26T09:10:03;26.80;99.90
32201;DHT22;18701;45.588;5.288;2023-06-26T09:12:29;26.80;99.90
32201;DHT22;18701;45.588;5.288;2023-06-26T09:14:56;26.80;99.90
32201;DHT22;18701;45.588;5.288;2023-06-26T09:17:29;27.00;99.90
32201;DHT22;18701;45.588;5.288;2023-06-26T09:19:54;27.10;99.90
32201;DHT22;18701;45.588;5.288;2023-06-26T09:22:20;26.90;99.90
32201;DHT22;18701;45.588;5.288;2023-06-26T09:24:47;27.20;99.90
32201;DHT22;18701;45.588;5.288;2023-06-26T09:27:12;27.30;99.90
32201;DHT22;18701;45.588;5.288;2023-06-26T09:29:38;27.40;99.90
32201;DHT22;18701;45.588;5.288;2023-06-26T09:32:04;27.40;99.90
32201;DHT22;18701;45.588;5.288;2023-06-26T09:34:31;27.30;99.90
32201;DHT22;18701;45.588;5.288;2023-06-26T09:36:58;27.40;99.90
32201;DHT22;18701;45.588;5.288;2023-06-26T09:39:24;27.50;99.90
32201;DHT22;18701;45.588;5.288;2023-06-26T09:41:50;27.30;99.90
32201;DHT22;18701;45.588;5.288;2023-06-26T09:44:16;27.30;99.90
32201;DHT22;18701;45.588;5.288;2023-06-26T09:46:45;27.50;99.90
32201;DHT22;18701;45.588;5.288;2023-06-26T09:49:11;27.60;99.90
32201;DHT22;18701;45.588;5.288;2023-06-26T09:51:39;27.70;99.90
32201;DHT22;18701;45.588;5.288;2023-06-26T09:54:05;27.70;99.90
32201;DHT22;18701;45.588;5.288;2023-06-26T09:56:32;27.80;99.90
32201;DHT22;18701;45.588;5.288;2023-06-26T09:58:59;27.80;99.90
32201;DHT22;18701;45.588;5.288;2023-06-26T10:01:25;27.90;99.90
32201;DHT22;18701;45.588;5.288;2023-06-26T10:03:51;28.00;99.90
32201;DHT22;18701;45.588;5.288;2023-06-26T10:06:31;28.10;99.90
32201;DHT22;18701;45.588;5.288;2023-06-26T10:08:59;28.30;99.90
32201;DHT22;18701;45.588;5.288;2023-06-26T10:11:36;28.60;99.90
32201;DHT22;18701;45.588;5.288;2023-06-26T10:14:04;28.40;99.90
32201;DHT22;18701;45.588;5.288;2023-06-26T10:16:31;28.60;99.90
32201;DHT22;18701;45.588;5.288;2023-06-26T10:19:02;28.50;99.90
32201;DHT22;18701;45.588;5.288;2023-06-26T10:21:29;28.10;99.90
32201;DHT22;18701;45.588;5.288;2023-06-26T10:23:57;28.10;99.90
32201;DHT22;18701;45.588;5.288;2023-06-26T10:26:24;28.00;99.90
32201;DHT22;18701;45.588;5.288;2023-06-26T10:28:52;28.20;99.90
32201;DHT22;18701;45.588;5.288;2023-06-26T10:31:22;28.20;99.90
32201;DHT22;18701;45.588;5.288;2023-06-26T10:33:49;28.30;99.90
32201;DHT22;18701;45.588;5.288;2023-06-26T10:36:15;28.30;99.90
32201;DHT22;18701;45.588;5.288;2023-06-26T10:38:51;28.40;99.90
32201;DHT22;18701;45.588;5.288;2023-06-26T10:41:24;28.40;99.90
32201;DHT22;18701;45.588;5.288;2023-06-26T10:46:27;28.80;99.90
32201;DHT22;18701;45.588;5.288;2023-06-26T10:49:01;28.90;99.90
32201;DHT22;18701;45.588;5.288;2023-06-26T10:51:27;29.00;99.90
32201;DHT22;18701;45.588;5.288;2023-06-26T10:53:54;29.00;99.90
32201;DHT22;18701;45.588;5.288;2023-06-26T10:56:20;29.20;99.90
32201;DHT22;18701;45.588;5.288;2023-06-26T10:58:47;29.20;99.90
32201;DHT22;18701;45.588;5.288;2023-06-26T11:01:26;29.00;99.90
32201;DHT22;18701;45.588;5.288;2023-06-26T11:04:06;29.00;99.90
32201;DHT22;18701;45.588;5.288;2023-06-26T11:06:33;29.10;99.90
32201;DHT22;18701;45.588;5.288;2023-06-26T11:09:09;29.00;99.90
32201;DHT22;18701;45.588;5.288;2023-06-26T11:14:18;28.90;99.90
32201;DHT22;18701;45.588;5.288;2023-06-26T11:16:44;28.80;99.90
32201;DHT22;18701;45.588;5.288;2023-06-26T11:19:11;29.00;99.90
32201;DHT22;18701;45.588;5.288;2023-06-26T11:21:38;29.20;99.90
32201;DHT22;18701;45.588;5.288;2023-06-26T11:24:06;29.00;99.90
32201;DHT22;18701;45.588;5.288;2023-06-26T11:26:41;29.20;99.90
32201;DHT22;18701;45.588;5.288;2023-06-26T11:29:08;29.20;99.90
32201;DHT22;18701;45.588;5.288;2023-06-26T11:31:35;29.30;99.90
32201;DHT22;18701;45.588;5.288;2023-06-26T11:34:04;29.20;99.90
32201;DHT22;18701;45.588;5.288;2023-06-26T11:36:30;29.50;99.90
32201;DHT22;18701;45.588;5.288;2023-06-26T11:38:57;29.40;99.90
32201;DHT22;18701;45.588;5.288;2023-06-26T11:41:25;29.40;99.90
32201;DHT22;18701;45.588;5.288;2023-06-26T11:43:52;29.70;99.90
32201;DHT22;18701;45.588;5.288;2023-06-26T11:46:19;29.30;99.90
32201;DHT22;18701;45.588;5.288;2023-06-26T11:48:45;29.40;99.90
32201;DHT22;18701;45.588;5.288;2023-06-26T11:51:13;29.40;99.90
32201;DHT22;18701;45.588;5.288;2023-06-26T11:53:41;29.80;99.90
32201;DHT22;18701;45.588;5.288;2023-06-26T11:56:17;29.90;99.90
32201;DHT22;18701;45.588;5.288;2023-06-26T11:59:15;29.40;99.90
32201;DHT22;18701;45.588;5.288;2023-06-26T12:01:42;29.70;99.90
32201;DHT22;18701;45.588;5.288;2023-06-26T12:04:11;30.00;99.90
32201;DHT22;18701;45.588;5.288;2023-06-26T12:06:38;30.20;99.90
32201;DHT22;18701;45.588;5.288;2023-06-26T12:09:07;29.80;99.90
32201;DHT22;18701;45.588;5.288;2023-06-26T12:11:43;29.80;99.90
32201;DHT22;18701;45.588;5.288;2023-06-26T12:14:10;29.90;99.90
32201;DHT22;18701;45.588;5.288;2023-06-26T12:16:36;30.30;99.90
32201;DHT22;18701;45.588;5.288;2023-06-26T12:19:04;30.00;99.90
32201;DHT22;18701;45.588;5.288;2023-06-26T12:24:16;30.30;99.90
32201;DHT22;18701;45.588;5.288;2023-06-26T12:26:44;30.40;99.90
32201;DHT22;18701;45.588;5.288;2023-06-26T12:29:12;30.50;99.90
32201;DHT22;18701;45.588;5.288;2023-06-26T12:31:45;30.40;99.90
32201;DHT22;18701;45.588;5.288;2023-06-26T12:34:12;30.60;99.90
32201;DHT22;18701;45.588;5.288;2023-06-26T12:36:50;30.90;99.90
32201;DHT22;18701;45.588;5.288;2023-06-26T12:39:18;30.50;99.90
32201;DHT22;18701;45.588;5.288;2023-06-26T12:41:45;30.60;99.90
32201;DHT22;18701;45.588;5.288;2023-06-26T12:44:19;30.40;99.90
32201;DHT22;18701;45.588;5.288;2023-06-26T12:46:46;30.70;99.90
32201;DHT22;18701;45.588;5.288;2023-06-26T12:49:13;31.10;99.90
32201;DHT22;18701;45.588;5.288;2023-06-26T12:51:38;31.10;99.90
32201;DHT22;18701;45.588;5.288;2023-06-26T12:54:05;30.60;99.90
32201;DHT22;18701;45.588;5.288;2023-06-26T12:56:31;30.60;99.90
32201;DHT22;18701;45.588;5.288;2023-06-26T12:58:57;31.00;99.90
32201;DHT22;18701;45.588;5.288;2023-06-26T13:01:23;30.60;99.90
32201;DHT22;18701;45.588;5.288;2023-06-26T13:03:50;31.00;99.70
32201;DHT22;18701;45.588;5.288;2023-06-26T13:06:16;30.80;99.40
32201;DHT22;18701;45.588;5.288;2023-06-26T13:08:42;30.00;99.90
32201;DHT22;18701;45.588;5.288;2023-06-26T13:11:09;30.50;99.00
32201;DHT22;18701;45.588;5.288;2023-06-26T13:13:34;31.10;99.90
32201;DHT22;18701;45.588;5.288;2023-06-26T13:16:00;30.90;99.20
32201;DHT22;18701;45.588;5.288;2023-06-26T13:18:26;30.90;98.90
32201;DHT22;18701;45.588;5.288;2023-06-26T13:20:51;30.80;98.90
32201;DHT22;18701;45.588;5.288;2023-06-26T13:23:17;31.10;98.00
32201;DHT22;18701;45.588;5.288;2023-06-26T13:25:44;30.90;98.40
32201;DHT22;18701;45.588;5.288;2023-06-26T13:28:10;31.70;98.80
32201;DHT22;18701;45.588;5.288;2023-06-26T13:30:36;31.90;98.80
32201;DHT22;18701;45.588;5.288;2023-06-26T13:33:01;31.80;99.30
32201;DHT22;18701;45.588;5.288;2023-06-26T13:35:27;31.30;98.00
32201;DHT22;18701;45.588;5.288;2023-06-26T13:37:52;31.50;97.80
32201;DHT22;18701;45.588;5.288;2023-06-26T13:40:18;31.70;97.90
32201;DHT22;18701;45.588;5.288;2023-06-26T13:42:44;32.30;99.20
32201;DHT22;18701;45.588;5.288;2023-06-26T13:45:10;32.40;97.80
32201;DHT22;18701;45.588;5.288;2023-06-26T13:47:36;32.30;96.90
32201;DHT22;18701;45.588;5.288;2023-06-26T13:50:04;31.80;97.90
32201;DHT22;18701;45.588;5.288;2023-06-26T13:52:29;31.80;97.60
32201;DHT22;18701;45.588;5.288;2023-06-26T13:54:55;32.10;97.90
32201;DHT22;18701;45.588;5.288;2023-06-26T13:57:22;32.30;97.20
32201;DHT22;18701;45.588;5.288;2023-06-26T13:59:47;31.90;97.80
32201;DHT22;18701;45.588;5.288;2023-06-26T14:02:13;32.10;98.30
32201;DHT22;18701;45.588;5.288;2023-06-26T14:04:39;32.20;98.00
32201;DHT22;18701;45.588;5.288;2023-06-26T14:07:06;32.10;98.30
32201;DHT22;18701;45.588;5.288;2023-06-26T14:09:32;31.90;98.80
32201;DHT22;18701;45.588;5.288;2023-06-26T14:11:58;31.90;98.50
32201;DHT22;18701;45.588;5.288;2023-06-26T14:14:24;31.40;98.00
32201;DHT22;18701;45.588;5.288;2023-06-26T14:16:50;31.90;96.10
32201;DHT22;18701;45.588;5.288;2023-06-26T14:19:15;32.00;96.80
32201;DHT22;18701;45.588;5.288;2023-06-26T14:21:43;31.80;97.20
32201;DHT22;18701;45.588;5.288;2023-06-26T14:24:09;32.00;97.40
32201;DHT22;18701;45.588;5.288;2023-06-26T14:26:34;31.70;97.20
32201;DHT22;18701;45.588;5.288;2023-06-26T14:29:00;32.00;96.80
32201;DHT22;18701;45.588;5.288;2023-06-26T14:31:26;31.50;96.30
32201;DHT22;18701;45.588;5.288;2023-06-26T14:33:52;32.20;96.70
32201;DHT22;18701;45.588;5.288;2023-06-26T14:36:17;32.20;95.30
32201;DHT22;18701;45.588;5.288;2023-06-26T14:38:44;32.00;96.00
32201;DHT22;18701;45.588;5.288;2023-06-26T14:41:10;31.80;97.10
32201;DHT22;18701;45.588;5.288;2023-06-26T14:43:36;31.90;96.50
32201;DHT22;18701;45.588;5.288;2023-06-26T14:46:01;32.20;96.10
32201;DHT22;18701;45.588;5.288;2023-06-26T14:48:27;32.00;96.10
32201;DHT22;18701;45.588;5.288;2023-06-26T14:50:52;32.00;96.60
32201;DHT22;18701;45.588;5.288;2023-06-26T14:53:18;31.70;95.80
32201;DHT22;18701;45.588;5.288;2023-06-26T14:55:43;31.70;96.20
32201;DHT22;18701;45.588;5.288;2023-06-26T14:58:09;31.50;96.00
32201;DHT22;18701;45.588;5.288;2023-06-26T15:00:35;32.00;96.10
32201;DHT22;18701;45.588;5.288;2023-06-26T15:03:00;31.80;95.40
32201;DHT22;18701;45.588;5.288;2023-06-26T15:05:26;31.80;96.50
32201;DHT22;18701;45.588;5.288;2023-06-26T15:07:51;31.80;95.80
32201;DHT22;18701;45.588;5.288;2023-06-26T15:10:17;31.90;96.00
32201;DHT22;18701;45.588;5.288;2023-06-26T15:12:43;31.40;95.80
32201;DHT22;18701;45.588;5.288;2023-06-26T15:15:09;31.20;96.30
32201;DHT22;18701;45.588;5.288;2023-06-26T15:17:35;31.70;96.40
32201;DHT22;18701;45.588;5.288;2023-06-26T15:20:00;31.50;95.90
32201;DHT22;18701;45.588;5.288;2023-06-26T15:22:27;31.70;95.80
32201;DHT22;18701;45.588;5.288;2023-06-26T15:24:53;31.50;96.10
32201;DHT22;18701;45.588;5.288;2023-06-26T15:27:19;32.30;97.10
32201;DHT22;18701;45.588;5.288;2023-06-26T15:29:44;32.00;96.30
32201;DHT22;18701;45.588;5.288;2023-06-26T15:32:10;32.20;96.00
32201;DHT22;18701;45.588;5.288;2023-06-26T15:34:36;32.20;95.70
32201;DHT22;18701;45.588;5.288;2023-06-26T15:37:01;31.70;95.30